sensor_id;sensor_type;location;lat;lon;timestamp;pressure;altitude;pressure_sealevel;temperature;humidity
54994;BME280;40891;47.242;8.648;2023-02-11T00:03:51;98361.69;;;0.21;83.56
54994;BME280;40891;47.242;8.648;2023-02-11T00:06:16;98371.38;;;0.18;83.50
54994;BME280;40891;47.242;8.648;2023-02-11T00:08:42;98366.44;;;0.12;83.77
54994;BME280;40891;47.242;8.648;2023-02-11T00:11:11;98371.41;;;0.10;82.88
54994;BME280;40891;47.242;8.648;2023-02-11T00:13:37;98368.69;;;0.10;82.25
54994;BME280;40891;47.242;8.648;2023-02-11T00:16:07;98367.09;;;0.09;82.75
54994;BME280;40891;47.242;8.648;2023-02-11T00:18:33;98360.03;;;0.08;82.20
54994;BME280;40891;47.242;8.648;2023-02-11T00:21:05;98356.84;;;0.06;82.72
54994;BME280;40891;47.242;8.648;2023-02-11T00:23:30;98354.75;;;0.03;83.38
54994;BME280;40891;47.242;8.648;2023-02-11T00:25:55;98362.97;;;0.03;84.13
54994;BME280;40891;47.242;8.648;2023-02-11T00:28:21;98373.50;;;0.13;83.22
54994;BME280;40891;47.242;8.648;2023-02-11T00:30:53;98362.75;;;0.08;83.42
54994;BME280;40891;47.242;8.648;2023-02-11T00:33:18;98366.19;;;0.05;83.14
54994;BME280;40891;47.242;8.648;2023-02-11T00:35:44;98368.44;;;0.03;83.26
54994;BME280;40891;47.242;8.648;2023-02-11T00:38:09;98372.31;;;0.02;83.76
54994;BME280;40891;47.242;8.648;2023-02-11T00:40:34;98366.69;;;-0.02;83.20
54994;BME280;40891;47.242;8.648;2023-02-11T00:42:59;98368.97;;;-0.04;83.18
54994;BME280;40891;47.242;8.648;2023-02-11T00:45:25;98362.69;;;-0.05;84.07
54994;BME280;40891;47.242;8.648;2023-02-11T00:47:50;98366.59;;;-0.06;83.79
54994;BME280;40891;47.242;8.648;2023-02-11T00:50:16;98363.50;;;-0.04;84.01
54994;BME280;40891;47.242;8.648;2023-02-11T00:52:41;98361.13;;;-0.06;84.13
54994;BME280;40891;47.242;8.648;2023-02-11T00:55:07;98358.69;;;-0.07;84.39
54994;BME280;40891;47.242;8.648;2023-02-11T00:57:32;98359.19;;;-0.05;84.42
54994;BME280;40891;47.242;8.648;2023-02-11T00:59:57;98364.97;;;-0.07;83.90
54994;BME280;40891;47.242;8.648;2023-02-11T01:02:23;98361.78;;;-0.09;84.22
54994;BME280;40891;47.242;8.648;2023-02-11T01:04:48;98352.97;;;-0.14;84.75
54994;BME280;40891;47.242;8.648;2023-02-11T01:07:14;98359.59;;;-0.15;85.00
54994;BME280;40891;47.242;8.648;2023-02-11T01:09:39;98357.97;;;-0.16;84.51
54994;BME280;40891;47.242;8.648;2023-02-11T01:12:04;98345.94;;;-0.15;84.33
54994;BME280;40891;47.242;8.648;2023-02-11T01:14:30;98350.25;;;-0.14;83.98
54994;BME280;40891;47.242;8.648;2023-02-11T01:16:55;98347.84;;;-0.16;84.48
54994;BME280;40891;47.242;8.648;2023-02-11T01:19:21;98341.94;;;-0.18;84.20
54994;BME280;40891;47.242;8.648;2023-02-11T01:21:46;98337.13;;;-0.21;84.31
54994;BME280;40891;47.242;8.648;2023-02-11T01:24:11;98346.00;;;-0.24;84.36
54994;BME280;40891;47.242;8.648;2023-02-11T01:26:36;98337.13;;;-0.21;84.27
54994;BME280;40891;47.242;8.648;2023-02-11T01:29:02;98331.84;;;-0.26;84.86
54994;BME280;40891;47.242;8.648;2023-02-11T01:31:29;98324.19;;;-0.32;85.06
54994;BME280;40891;47.242;8.648;2023-02-11T01:33:55;98315.09;;;-0.36;85.45
54994;BME280;40891;47.242;8.648;2023-02-11T01:36:20;98315.88;;;-0.36;85.09
54994;BME280;40891;47.242;8.648;2023-02-11T01:38:45;98322.13;;;-0.35;84.68
54994;BME280;40891;47.242;8.648;2023-02-11T01:41:12;98316.09;;;-0.41;84.33
54994;BME280;40891;47.242;8.648;2023-02-11T01:43:44;98315.88;;;-0.36;85.23
54994;BME280;40891;47.242;8.648;2023-02-11T01:46:28;98314.47;;;-0.42;85.32
54994;BME280;40891;47.242;8.648;2023-02-11T01:49:11;98315.41;;;-0.38;85.29
54994;BME280;40891;47.242;8.648;2023-02-11T01:51:44;98304.00;;;-0.40;85.10
54994;BME280;40891;47.242;8.648;2023-02-11T01:54:13;98311.75;;;-0.42;85.01
54994;BME280;40891;47.242;8.648;2023-02-11T01:57:00;98305.97;;;-0.40;85.72
54994;BME280;40891;47.242;8.648;2023-02-11T02:02:16;98297.44;;;-0.39;86.22
54994;BME280;40891;47.242;8.648;2023-02-11T02:04:59;98299.00;;;-0.38;86.08
54994;BME280;40891;47.242;8.648;2023-02-11T02:07:36;98291.97;;;-0.39;86.78
54994;BME280;40891;47.242;8.648;2023-02-11T02:10:08;98293.09;;;-0.40;87.29
54994;BME280;40891;47.242;8.648;2023-02-11T02:12:35;98295.34;;;-0.42;87.78
54994;BME280;40891;47.242;8.648;2023-02-11T02:15:21;98288.78;;;-0.41;88.36
54994;BME280;40891;47.242;8.648;2023-02-11T02:17:58;98283.41;;;-0.37;88.67
54994;BME280;40891;47.242;8.648;2023-02-11T02:32:35;98262.50;;;-0.33;88.28
54994;BME280;40891;47.242;8.648;2023-02-11T02:40:46;98239.75;;;-0.25;85.63
54994;BME280;40891;47.242;8.648;2023-02-11T02:43:14;98241.19;;;-0.40;86.33
54994;BME280;40891;47.242;8.648;2023-02-11T02:45:39;98242.72;;;-0.51;86.06
54994;BME280;40891;47.242;8.648;2023-02-11T02:48:05;98242.94;;;-0.56;86.25
54994;BME280;40891;47.242;8.648;2023-02-11T02:50:33;98238.13;;;-0.59;84.88
54994;BME280;40891;47.242;8.648;2023-02-11T02:56:14;98250.53;;;-0.61;83.97
54994;BME280;40891;47.242;8.648;2023-02-11T03:01:56;98251.75;;;-0.71;84.37
54994;BME280;40891;47.242;8.648;2023-02-11T03:07:19;98247.75;;;-0.74;84.98
54994;BME280;40891;47.242;8.648;2023-02-11T03:09:58;98246.34;;;-0.80;84.75
54994;BME280;40891;47.242;8.648;2023-02-11T03:12:29;98246.53;;;-0.85;85.64
54994;BME280;40891;47.242;8.648;2023-02-11T03:14:58;98259.06;;;-0.84;87.79
54994;BME280;40891;47.242;8.648;2023-02-11T03:17:26;98257.72;;;-0.78;89.38
54994;BME280;40891;47.242;8.648;2023-02-11T03:19:54;98260.78;;;-0.79;89.08
54994;BME280;40891;47.242;8.648;2023-02-11T03:22:40;98269.19;;;-0.84;89.30
54994;BME280;40891;47.242;8.648;2023-02-11T03:25:07;98265.06;;;-0.90;89.77
54994;BME280;40891;47.242;8.648;2023-02-11T03:27:49;98263.44;;;-0.91;89.78
54994;BME280;40891;47.242;8.648;2023-02-11T03:30:28;98267.19;;;-0.96;91.23
54994;BME280;40891;47.242;8.648;2023-02-11T03:32:56;98260.44;;;-0.98;92.06
54994;BME280;40891;47.242;8.648;2023-02-11T03:35:34;98262.53;;;-0.95;92.78
54994;BME280;40891;47.242;8.648;2023-02-11T03:38:07;98267.19;;;-0.96;93.36
54994;BME280;40891;47.242;8.648;2023-02-11T03:40:38;98254.19;;;-0.99;94.80
54994;BME280;40891;47.242;8.648;2023-02-11T03:43:08;98261.09;;;-1.01;94.56
54994;BME280;40891;47.242;8.648;2023-02-11T03:45:36;98259.84;;;-1.04;95.83
54994;BME280;40891;47.242;8.648;2023-02-11T03:48:18;98261.78;;;-1.04;95.96
54994;BME280;40891;47.242;8.648;2023-02-11T03:50:45;98253.72;;;-1.01;96.34
54994;BME280;40891;47.242;8.648;2023-02-11T03:53:13;98245.41;;;-1.04;95.90
54994;BME280;40891;47.242;8.648;2023-02-11T03:55:41;98251.72;;;-1.12;95.54
54994;BME280;40891;47.242;8.648;2023-02-11T03:58:07;98243.88;;;-1.14;95.98
54994;BME280;40891;47.242;8.648;2023-02-11T04:00:35;98236.69;;;-1.18;96.03
54994;BME280;40891;47.242;8.648;2023-02-11T04:03:01;98238.91;;;-1.20;95.57
54994;BME280;40891;47.242;8.648;2023-02-11T04:05:27;98232.81;;;-1.17;95.41
54994;BME280;40891;47.242;8.648;2023-02-11T04:07:52;98246.31;;;-1.21;94.80
54994;BME280;40891;47.242;8.648;2023-02-11T04:10:18;98243.09;;;-1.23;94.45
54994;BME280;40891;47.242;8.648;2023-02-11T04:12:43;98246.97;;;-1.24;94.14
54994;BME280;40891;47.242;8.648;2023-02-11T04:15:08;98239.13;;;-1.25;94.30
54994;BME280;40891;47.242;8.648;2023-02-11T04:17:34;98238.63;;;-1.27;94.94
54994;BME280;40891;47.242;8.648;2023-02-11T04:19:59;98236.59;;;-1.30;95.24
54994;BME280;40891;47.242;8.648;2023-02-11T04:22:25;98233.84;;;-1.30;95.24
54994;BME280;40891;47.242;8.648;2023-02-11T04:24:50;98236.44;;;-1.34;95.11
54994;BME280;40891;47.242;8.648;2023-02-11T04:27:15;98229.84;;;-1.33;95.44
54994;BME280;40891;47.242;8.648;2023-02-11T04:29:41;98219.72;;;-1.32;94.71
54994;BME280;40891;47.242;8.648;2023-02-11T04:32:06;98225.19;;;-1.32;93.84
54994;BME280;40891;47.242;8.648;2023-02-11T04:34:31;98224.88;;;-1.31;93.49
54994;BME280;40891;47.242;8.648;2023-02-11T04:36:57;98223.59;;;-1.33;93.41
54994;BME280;40891;47.242;8.648;2023-02-11T04:39:22;98234.34;;;-1.37;92.98
54994;BME280;40891;47.242;8.648;2023-02-11T04:41:47;98237.56;;;-1.35;92.78
54994;BME280;40891;47.242;8.648;2023-02-11T04:44:13;98236.78;;;-1.35;92.50
54994;BME280;40891;47.242;8.648;2023-02-11T04:46:38;98239.50;;;-1.35;92.37
54994;BME280;40891;47.242;8.648;2023-02-11T04:49:03;98244.16;;;-1.36;92.69
54994;BME280;40891;47.242;8.648;2023-02-11T04:51:30;98239.69;;;-1.41;92.42
54994;BME280;40891;47.242;8.648;2023-02-11T04:53:55;98241.75;;;-1.38;91.98
54994;BME280;40891;47.242;8.648;2023-02-11T04:56:20;98253.44;;;-1.37;92.81
54994;BME280;40891;47.242;8.648;2023-02-11T04:58:46;98245.41;;;-1.33;93.34
54994;BME280;40891;47.242;8.648;2023-02-11T05:01:14;98238.31;;;-1.26;93.57
54994;BME280;40891;47.242;8.648;2023-02-11T05:03:40;98240.88;;;-1.21;93.82
54994;BME280;40891;47.242;8.648;2023-02-11T05:06:05;98244.59;;;-1.25;94.68
54994;BME280;40891;47.242;8.648;2023-02-11T05:08:31;98252.09;;;-1.22;95.33
54994;BME280;40891;47.242;8.648;2023-02-11T05:10:57;98255.28;;;-1.20;96.55
54994;BME280;40891;47.242;8.648;2023-02-11T05:13:23;98252.25;;;-1.19;96.54
54994;BME280;40891;47.242;8.648;2023-02-11T05:15:48;98249.03;;;-1.21;96.71
54994;BME280;40891;47.242;8.648;2023-02-11T05:18:14;98249.69;;;-1.24;95.80
54994;BME280;40891;47.242;8.648;2023-02-11T05:20:40;98246.81;;;-1.27;95.07
54994;BME280;40891;47.242;8.648;2023-02-11T05:23:06;98244.28;;;-1.32;94.52
54994;BME280;40891;47.242;8.648;2023-02-11T05:25:31;98250.88;;;-1.33;93.40
54994;BME280;40891;47.242;8.648;2023-02-11T05:27:57;98260.84;;;-1.38;93.83
54994;BME280;40891;47.242;8.648;2023-02-11T05:30:22;98261.50;;;-1.41;93.37
54994;BME280;40891;47.242;8.648;2023-02-11T05:32:48;98265.34;;;-1.42;92.57
54994;BME280;40891;47.242;8.648;2023-02-11T05:35:13;98258.97;;;-1.46;92.07
54994;BME280;40891;47.242;8.648;2023-02-11T05:37:38;98249.84;;;-1.50;92.44
54994;BME280;40891;47.242;8.648;2023-02-11T05:40:04;98256.41;;;-1.51;93.27
54994;BME280;40891;47.242;8.648;2023-02-11T05:42:30;98257.03;;;-1.45;94.35
54994;BME280;40891;47.242;8.648;2023-02-11T05:44:55;98264.41;;;-1.46;95.07
54994;BME280;40891;47.242;8.648;2023-02-11T05:47:21;98266.16;;;-1.41;96.07
54994;BME280;40891;47.242;8.648;2023-02-11T05:49:46;98264.22;;;-1.41;95.98
54994;BME280;40891;47.242;8.648;2023-02-11T05:52:11;98268.22;;;-1.38;97.21
54994;BME280;40891;47.242;8.648;2023-02-11T05:54:37;98270.97;;;-1.38;98.51
54994;BME280;40891;47.242;8.648;2023-02-11T05:57:02;98276.72;;;-1.40;97.96
54994;BME280;40891;47.242;8.648;2023-02-11T05:59:27;98282.84;;;-1.43;97.40
54994;BME280;40891;47.242;8.648;2023-02-11T06:01:53;98286.22;;;-1.46;97.35
54994;BME280;40891;47.242;8.648;2023-02-11T06:04:18;98280.31;;;-1.48;97.12
54994;BME280;40891;47.242;8.648;2023-02-11T06:06:43;98280.47;;;-1.53;97.35
54994;BME280;40891;47.242;8.648;2023-02-11T06:09:09;98290.94;;;-1.55;97.42
54994;BME280;40891;47.242;8.648;2023-02-11T06:11:35;98289.78;;;-1.54;97.57
54994;BME280;40891;47.242;8.648;2023-02-11T06:14:01;98294.13;;;-1.53;98.08
54994;BME280;40891;47.242;8.648;2023-02-11T06:16:26;98301.19;;;-1.52;98.81
54994;BME280;40891;47.242;8.648;2023-02-11T06:18:51;98302.47;;;-1.49;99.83
54994;BME280;40891;47.242;8.648;2023-02-11T06:21:17;98289.59;;;-1.49;100.00
54994;BME280;40891;47.242;8.648;2023-02-11T06:23:42;98279.97;;;-1.46;100.00
54994;BME280;40891;47.242;8.648;2023-02-11T06:26:16;98286.22;;;-1.46;100.00
54994;BME280;40891;47.242;8.648;2023-02-11T06:28:41;98283.97;;;-1.44;100.00
54994;BME280;40891;47.242;8.648;2023-02-11T06:31:07;98288.63;;;-1.44;100.00
54994;BME280;40891;47.242;8.648;2023-02-11T06:33:34;98286.69;;;-1.44;100.00
54994;BME280;40891;47.242;8.648;2023-02-11T06:36:00;98279.31;;;-1.43;100.00
54994;BME280;40891;47.242;8.648;2023-02-11T06:38:25;98288.16;;;-1.46;100.00
54994;BME280;40891;47.242;8.648;2023-02-11T06:40:50;98299.22;;;-1.51;100.00
54994;BME280;40891;47.242;8.648;2023-02-11T06:43:16;98299.09;;;-1.55;100.00
54994;BME280;40891;47.242;8.648;2023-02-11T06:45:41;98293.78;;;-1.51;100.00
54994;BME280;40891;47.242;8.648;2023-02-11T06:48:07;98298.47;;;-1.52;100.00
54994;BME280;40891;47.242;8.648;2023-02-11T06:50:33;98306.63;;;-1.52;100.00
54994;BME280;40891;47.242;8.648;2023-02-11T06:52:58;98304.38;;;-1.50;100.00
54994;BME280;40891;47.242;8.648;2023-02-11T06:55:24;98306.44;;;-1.47;100.00
54994;BME280;40891;47.242;8.648;2023-02-11T06:57:50;98305.78;;;-1.44;100.00
54994;BME280;40891;47.242;8.648;2023-02-11T07:00:15;98316.34;;;-1.33;100.00
54994;BME280;40891;47.242;8.648;2023-02-11T07:02:41;98315.50;;;-1.25;100.00
54994;BME280;40891;47.242;8.648;2023-02-11T07:05:07;98322.22;;;-1.23;100.00
54994;BME280;40891;47.242;8.648;2023-02-11T07:07:32;98319.19;;;-1.21;100.00
54994;BME280;40891;47.242;8.648;2023-02-11T07:09:58;98314.19;;;-1.19;100.00
54994;BME280;40891;47.242;8.648;2023-02-11T07:12:23;98310.81;;;-1.16;100.00
54994;BME280;40891;47.242;8.648;2023-02-11T07:14:48;98304.03;;;-1.10;100.00
54994;BME280;40891;47.242;8.648;2023-02-11T07:17:14;98301.84;;;-0.96;100.00
54994;BME280;40891;47.242;8.648;2023-02-11T07:19:39;98305.94;;;-0.61;100.00
54994;BME280;40891;47.242;8.648;2023-02-11T07:22:04;98307.81;;;0.00;100.00
54994;BME280;40891;47.242;8.648;2023-02-11T07:24:30;98288.94;;;0.77;97.07
54994;BME280;40891;47.242;8.648;2023-02-11T07:26:55;98290.03;;;1.36;91.94
54994;BME280;40891;47.242;8.648;2023-02-11T07:29:20;98281.19;;;1.82;87.33
54994;BME280;40891;47.242;8.648;2023-02-11T07:31:46;98281.47;;;2.21;85.03
54994;BME280;40891;47.242;8.648;2023-02-11T07:34:11;98280.53;;;2.44;83.66
54994;BME280;40891;47.242;8.648;2023-02-11T07:36:36;98283.91;;;2.85;80.27
54994;BME280;40891;47.242;8.648;2023-02-11T07:39:02;98287.44;;;3.01;77.65
54994;BME280;40891;47.242;8.648;2023-02-11T07:41:28;98277.13;;;3.48;74.51
54994;BME280;40891;47.242;8.648;2023-02-11T07:43:53;98272.50;;;3.33;73.95
54994;BME280;40891;47.242;8.648;2023-02-11T07:46:25;98253.31;;;3.36;74.69
54994;BME280;40891;47.242;8.648;2023-02-11T07:48:51;98248.50;;;3.87;70.54
54994;BME280;40891;47.242;8.648;2023-02-11T07:51:19;98246.88;;;4.25;69.35
54994;BME280;40891;47.242;8.648;2023-02-11T07:53:45;98241.63;;;4.39;68.52
54994;BME280;40891;47.242;8.648;2023-02-11T07:56:13;98253.78;;;3.77;71.73
54994;BME280;40891;47.242;8.648;2023-02-11T07:58:39;98248.34;;;3.42;74.54
54994;BME280;40891;47.242;8.648;2023-02-11T08:01:10;98243.97;;;3.95;74.48
54994;BME280;40891;47.242;8.648;2023-02-11T08:03:37;98238.47;;;4.86;70.32
54994;BME280;40891;47.242;8.648;2023-02-11T08:06:08;98227.66;;;5.00;67.41
54994;BME280;40891;47.242;8.648;2023-02-11T08:08:33;98243.59;;;4.61;68.59
54994;BME280;40891;47.242;8.648;2023-02-11T08:11:05;98245.34;;;4.27;68.30
54994;BME280;40891;47.242;8.648;2023-02-11T08:13:30;98253.13;;;3.83;70.46
54994;BME280;40891;47.242;8.648;2023-02-11T08:15:56;98252.22;;;3.57;71.15
54994;BME280;40891;47.242;8.648;2023-02-11T08:18:21;98250.78;;;3.28;75.05
54994;BME280;40891;47.242;8.648;2023-02-11T08:20:47;98253.97;;;3.30;76.73
54994;BME280;40891;47.242;8.648;2023-02-11T08:23:12;98247.63;;;3.45;75.44
54994;BME280;40891;47.242;8.648;2023-02-11T08:25:37;98240.25;;;3.87;73.33
54994;BME280;40891;47.242;8.648;2023-02-11T08:28:03;98245.75;;;4.06;71.29
54994;BME280;40891;47.242;8.648;2023-02-11T08:30:28;98244.84;;;4.67;66.25
54994;BME280;40891;47.242;8.648;2023-02-11T08:32:53;98226.28;;;5.98;60.48
54994;BME280;40891;47.242;8.648;2023-02-11T08:35:18;98208.38;;;7.99;53.35
54994;BME280;40891;47.242;8.648;2023-02-11T08:37:44;98200.97;;;9.27;49.96
54994;BME280;40891;47.242;8.648;2023-02-11T08:40:09;98189.81;;;10.93;46.24
54994;BME280;40891;47.242;8.648;2023-02-11T08:42:35;98165.66;;;12.21;40.28
54994;BME280;40891;47.242;8.648;2023-02-11T08:45:00;98151.81;;;12.68;36.97
54994;BME280;40891;47.242;8.648;2023-02-11T08:47:25;98145.47;;;13.14;34.73
54994;BME280;40891;47.242;8.648;2023-02-11T08:49:51;98136.94;;;13.44;34.93
54994;BME280;40891;47.242;8.648;2023-02-11T08:52:16;98132.53;;;13.82;35.41
54994;BME280;40891;47.242;8.648;2023-02-11T08:54:41;98124.31;;;14.30;34.66
54994;BME280;40891;47.242;8.648;2023-02-11T08:57:07;98120.41;;;14.92;34.25
54994;BME280;40891;47.242;8.648;2023-02-11T08:59:32;98114.97;;;15.46;32.85
54994;BME280;40891;47.242;8.648;2023-02-11T09:01:58;98102.16;;;15.74;33.76
54994;BME280;40891;47.242;8.648;2023-02-11T09:04:24;98098.56;;;14.71;34.44
54994;BME280;40891;47.242;8.648;2023-02-11T09:06:49;98102.28;;;14.32;36.41
54994;BME280;40891;47.242;8.648;2023-02-11T09:09:15;98108.16;;;14.70;35.95
54994;BME280;40891;47.242;8.648;2023-02-11T09:11:42;98120.78;;;13.91;37.33
54994;BME280;40891;47.242;8.648;2023-02-11T09:14:15;98132.53;;;12.54;40.64
54994;BME280;40891;47.242;8.648;2023-02-11T09:16:42;98139.59;;;11.41;43.68
54994;BME280;40891;47.242;8.648;2023-02-11T09:19:08;98159.09;;;9.87;48.80
54994;BME280;40891;47.242;8.648;2023-02-11T09:21:34;98176.00;;;9.27;50.79
54994;BME280;40891;47.242;8.648;2023-02-11T09:24:00;98184.72;;;9.11;51.47
54994;BME280;40891;47.242;8.648;2023-02-11T09:26:28;98193.47;;;8.60;52.51
54994;BME280;40891;47.242;8.648;2023-02-11T09:28:53;98196.59;;;9.29;50.64
54994;BME280;40891;47.242;8.648;2023-02-11T09:31:22;98181.88;;;11.32;43.92
54994;BME280;40891;47.242;8.648;2023-02-11T09:33:49;98181.19;;;11.21;42.14
54994;BME280;40891;47.242;8.648;2023-02-11T09:36:17;98186.56;;;10.50;42.27
54994;BME280;40891;47.242;8.648;2023-02-11T09:38:43;98192.16;;;9.56;44.47
54994;BME280;40891;47.242;8.648;2023-02-11T09:41:26;98206.94;;;8.51;45.10
54994;BME280;40891;47.242;8.648;2023-02-11T09:43:58;98208.75;;;7.94;49.08
54994;BME280;40891;47.242;8.648;2023-02-11T09:46:30;98185.84;;;9.45;46.19
54994;BME280;40891;47.242;8.648;2023-02-11T09:48:58;98182.91;;;9.91;44.95
54994;BME280;40891;47.242;8.648;2023-02-11T09:51:44;98178.34;;;12.26;38.85
54994;BME280;40891;47.242;8.648;2023-02-11T09:57:18;98165.59;;;14.07;35.29
54994;BME280;40891;47.242;8.648;2023-02-11T09:59:43;98163.50;;;14.30;35.05
54994;BME280;40891;47.242;8.648;2023-02-11T10:08:18;98143.50;;;17.72;29.78
54994;BME280;40891;47.242;8.648;2023-02-11T10:10:51;98149.91;;;19.62;26.37
54994;BME280;40891;47.242;8.648;2023-02-11T10:13:28;98135.19;;;20.54;24.79
54994;BME280;40891;47.242;8.648;2023-02-11T10:22:02;98150.03;;;20.82;24.46
54994;BME280;40891;47.242;8.648;2023-02-11T10:24:30;98149.91;;;19.71;25.94
54994;BME280;40891;47.242;8.648;2023-02-11T10:26:56;98158.25;;;18.50;26.76
54994;BME280;40891;47.242;8.648;2023-02-11T10:29:32;98157.03;;;17.86;27.64
54994;BME280;40891;47.242;8.648;2023-02-11T10:32:01;98157.84;;;15.76;30.33
54994;BME280;40891;47.242;8.648;2023-02-11T10:34:29;98157.75;;;14.86;31.80
54994;BME280;40891;47.242;8.648;2023-02-11T10:36:54;98172.41;;;12.77;32.79
54994;BME280;40891;47.242;8.648;2023-02-11T10:39:22;98162.47;;;12.50;34.71
54994;BME280;40891;47.242;8.648;2023-02-11T10:42:10;98157.69;;;11.26;36.28
54994;BME280;40891;47.242;8.648;2023-02-11T10:44:45;98157.28;;;12.21;36.59
54994;BME280;40891;47.242;8.648;2023-02-11T10:47:19;98147.63;;;13.03;33.79
54994;BME280;40891;47.242;8.648;2023-02-11T10:49:47;98146.09;;;12.52;34.90
54994;BME280;40891;47.242;8.648;2023-02-11T10:57:48;98164.56;;;10.08;40.17
54994;BME280;40891;47.242;8.648;2023-02-11T11:02:43;98153.84;;;10.06;41.91
54994;BME280;40891;47.242;8.648;2023-02-11T11:05:20;98152.56;;;10.25;43.32
54994;BME280;40891;47.242;8.648;2023-02-11T11:08:07;98144.13;;;10.87;42.28
54994;BME280;40891;47.242;8.648;2023-02-11T11:13:00;98142.63;;;12.17;39.47
54994;BME280;40891;47.242;8.648;2023-02-11T11:15:28;98147.63;;;11.69;41.35
54994;BME280;40891;47.242;8.648;2023-02-11T11:18:27;98147.94;;;12.08;39.78
54994;BME280;40891;47.242;8.648;2023-02-11T11:21:00;98138.50;;;12.52;38.85
54994;BME280;40891;47.242;8.648;2023-02-11T11:23:28;98129.25;;;13.05;37.38
54994;BME280;40891;47.242;8.648;2023-02-11T11:26:09;98117.06;;;14.33;34.28
54994;BME280;40891;47.242;8.648;2023-02-11T11:28:42;98099.44;;;15.58;32.43
54994;BME280;40891;47.242;8.648;2023-02-11T11:31:17;98113.13;;;16.10;31.65
54994;BME280;40891;47.242;8.648;2023-02-11T11:33:45;98110.34;;;16.22;31.71
54994;BME280;40891;47.242;8.648;2023-02-11T11:36:14;98102.09;;;15.90;32.12
54994;BME280;40891;47.242;8.648;2023-02-11T11:38:56;98094.50;;;16.66;30.99
54994;BME280;40891;47.242;8.648;2023-02-11T11:41:28;98095.69;;;17.03;29.24
54994;BME280;40891;47.242;8.648;2023-02-11T11:44:24;98096.84;;;16.43;30.94
54994;BME280;40891;47.242;8.648;2023-02-11T11:47:19;98079.22;;;17.14;29.96
54994;BME280;40891;47.242;8.648;2023-02-11T11:52:42;98057.84;;;20.99;24.56
54994;BME280;40891;47.242;8.648;2023-02-11T11:55:44;98046.06;;;24.17;21.01
54994;BME280;40891;47.242;8.648;2023-02-11T11:58:14;98057.28;;;25.47;18.71
54994;BME280;40891;47.242;8.648;2023-02-11T12:08:47;98062.75;;;21.22;21.00
54994;BME280;40891;47.242;8.648;2023-02-11T12:11:22;98069.00;;;19.14;23.59
54994;BME280;40891;47.242;8.648;2023-02-11T12:16:42;98066.63;;;20.45;22.24
54994;BME280;40891;47.242;8.648;2023-02-11T12:24:38;98037.69;;;23.82;19.19
54994;BME280;40891;47.242;8.648;2023-02-11T12:35:37;98029.75;;;23.40;19.17
54994;BME280;40891;47.242;8.648;2023-02-11T12:41:21;98029.22;;;23.62;17.78
54994;BME280;40891;47.242;8.648;2023-02-11T12:44:24;98020.97;;;24.15;17.23
54994;BME280;40891;47.242;8.648;2023-02-11T12:47:19;98016.66;;;25.75;15.99
54994;BME280;40891;47.242;8.648;2023-02-11T12:55:18;97995.16;;;26.84;16.00
54994;BME280;40891;47.242;8.648;2023-02-11T12:57:47;97996.25;;;26.20;16.99
54994;BME280;40891;47.242;8.648;2023-02-11T13:00:21;98001.91;;;28.31;15.02
54994;BME280;40891;47.242;8.648;2023-02-11T13:03:00;98004.78;;;27.50;15.60
54994;BME280;40891;47.242;8.648;2023-02-11T13:08:44;98003.25;;;26.19;17.48
54994;BME280;40891;47.242;8.648;2023-02-11T13:11:17;97999.72;;;27.15;16.07
54994;BME280;40891;47.242;8.648;2023-02-11T13:16:19;97987.63;;;26.81;15.99
54994;BME280;40891;47.242;8.648;2023-02-11T13:18:55;97979.91;;;27.39;16.05
54994;BME280;40891;47.242;8.648;2023-02-11T13:21:32;97976.97;;;27.50;15.05
54994;BME280;40891;47.242;8.648;2023-02-11T13:24:14;97974.69;;;27.43;15.47
54994;BME280;40891;47.242;8.648;2023-02-11T13:32:11;97989.75;;;24.63;17.73
54994;BME280;40891;47.242;8.648;2023-02-11T13:37:17;97991.19;;;23.80;19.10
54994;BME280;40891;47.242;8.648;2023-02-11T13:39:55;97976.25;;;25.71;17.45
54994;BME280;40891;47.242;8.648;2023-02-11T13:42:20;97980.84;;;24.81;17.77
54994;BME280;40891;47.242;8.648;2023-02-11T13:44:46;97987.78;;;24.75;17.75
54994;BME280;40891;47.242;8.648;2023-02-11T13:49:55;97999.66;;;21.75;20.54
54994;BME280;40891;47.242;8.648;2023-02-11T13:52:28;98004.09;;;20.99;21.68
54994;BME280;40891;47.242;8.648;2023-02-11T13:55:38;98007.22;;;19.79;21.96
54994;BME280;40891;47.242;8.648;2023-02-11T14:14:16;97972.31;;;23.51;18.38
54994;BME280;40891;47.242;8.648;2023-02-11T14:19:38;97964.03;;;23.79;18.00
54994;BME280;40891;47.242;8.648;2023-02-11T14:27:14;97976.41;;;22.14;19.80
54994;BME280;40891;47.242;8.648;2023-02-11T14:41:25;97969.72;;;20.53;21.18
54994;BME280;40891;47.242;8.648;2023-02-11T14:43:54;97973.53;;;21.12;20.41
54994;BME280;40891;47.242;8.648;2023-02-11T14:46:22;97968.13;;;21.67;19.95
54994;BME280;40891;47.242;8.648;2023-02-11T14:48:51;97972.50;;;22.61;19.17
54994;BME280;40891;47.242;8.648;2023-02-11T14:51:23;97972.41;;;22.21;19.03
54994;BME280;40891;47.242;8.648;2023-02-11T14:53:53;97964.50;;;22.10;19.46
54994;BME280;40891;47.242;8.648;2023-02-11T14:56:25;97959.31;;;22.44;19.02
54994;BME280;40891;47.242;8.648;2023-02-11T14:58:53;97973.19;;;22.07;19.57
54994;BME280;40891;47.242;8.648;2023-02-11T15:01:35;97971.31;;;21.31;20.16
54994;BME280;40891;47.242;8.648;2023-02-11T15:04:05;97959.94;;;21.84;19.74
54994;BME280;40891;47.242;8.648;2023-02-11T15:06:46;97962.94;;;21.36;20.41
54994;BME280;40891;47.242;8.648;2023-02-11T15:09:19;97967.81;;;21.36;20.80
54994;BME280;40891;47.242;8.648;2023-02-11T15:11:50;97970.16;;;21.37;20.14
54994;BME280;40891;47.242;8.648;2023-02-11T15:14:25;97971.91;;;20.96;20.90
54994;BME280;40891;47.242;8.648;2023-02-11T15:16:52;97958.28;;;21.48;20.34
54994;BME280;40891;47.242;8.648;2023-02-11T15:19:23;97974.53;;;21.24;20.78
54994;BME280;40891;47.242;8.648;2023-02-11T15:21:50;97979.13;;;20.26;22.24
54994;BME280;40891;47.242;8.648;2023-02-11T15:24:24;97975.94;;;18.95;23.67
54994;BME280;40891;47.242;8.648;2023-02-11T15:29:42;98003.00;;;15.68;28.59
54994;BME280;40891;47.242;8.648;2023-02-11T15:34:34;98007.38;;;14.70;31.30
54994;BME280;40891;47.242;8.648;2023-02-11T15:37:01;98010.25;;;13.86;33.67
54994;BME280;40891;47.242;8.648;2023-02-11T15:42:24;98024.97;;;12.26;36.96
54994;BME280;40891;47.242;8.648;2023-02-11T15:47:51;98029.44;;;11.67;38.59
54994;BME280;40891;47.242;8.648;2023-02-11T15:50:23;98028.72;;;11.32;40.91